sensor_id;sensor_type;location;lat;lon;timestamp;temperature;humidity
14014;DHT22;49110;52.584;13.408;2023-08-12T00:00:27;19.40;99.90
14014;DHT22;49110;52.584;13.408;2023-08-12T00:01:28;19.40;99.90
14014;DHT22;49110;52.584;13.408;2023-08-12T00:02:28;19.40;99.90
14014;DHT22;49110;52.584;13.408;2023-08-12T00:03:29;19.40;99.90
14014;DHT22;49110;52.584;13.408;2023-08-12T00:04:29;19.40;99.90
14014;DHT22;49110;52.584;13.408;2023-08-12T00:05:30;19.40;99.90
14014;DHT22;49110;52.584;13.408;2023-08-12T00:06:30;19.40;99.90
14014;DHT22;49110;52.584;13.408;2023-08-12T00:07:31;19.40;99.90
14014;DHT22;49110;52.584;13.408;2023-08-12T00:08:32;19.40;99.90
14014;DHT22;49110;52.584;13.408;2023-08-12T00:09:33;19.40;99.90
14014;DHT22;49110;52.584;13.408;2023-08-12T00:10:33;19.40;99.90
14014;DHT22;49110;52.584;13.408;2023-08-12T00:11:37;19.40;99.90
14014;DHT22;49110;52.584;13.408;2023-08-12T00:12:38;19.40;99.90
14014;DHT22;49110;52.584;13.408;2023-08-12T00:13:39;19.40;99.90
14014;DHT22;49110;52.584;13.408;2023-08-12T00:14:39;19.30;99.90
14014;DHT22;49110;52.584;13.408;2023-08-12T00:15:40;19.40;99.90
14014;DHT22;49110;52.584;13.408;2023-08-12T00:16:41;19.30;99.90
14014;DHT22;49110;52.584;13.408;2023-08-12T00:17:41;19.30;99.90
14014;DHT22;49110;52.584;13.408;2023-08-12T00:18:42;19.30;99.90
14014;DHT22;49110;52.584;13.408;2023-08-12T00:19:43;19.20;99.90
14014;DHT22;49110;52.584;13.408;2023-08-12T00:20:43;19.20;99.90
14014;DHT22;49110;52.584;13.408;2023-08-12T00:21:44;19.10;99.90
14014;DHT22;49110;52.584;13.408;2023-08-12T00:22:45;19.10;99.90
14014;DHT22;49110;52.584;13.408;2023-08-12T00:23:45;19.10;99.90
14014;DHT22;49110;52.584;13.408;2023-08-12T00:24:48;19.10;99.90
14014;DHT22;49110;52.584;13.408;2023-08-12T00:25:49;19.10;99.90
14014;DHT22;49110;52.584;13.408;2023-08-12T00:26:50;19.00;99.90
14014;DHT22;49110;52.584;13.408;2023-08-12T00:27:50;19.00;99.90
14014;DHT22;49110;52.584;13.408;2023-08-12T00:28:50;19.00;99.90
14014;DHT22;49110;52.584;13.408;2023-08-12T00:29:51;19.00;99.90
14014;DHT22;49110;52.584;13.408;2023-08-12T00:30:52;19.00;99.90
14014;DHT22;49110;52.584;13.408;2023-08-12T00:31:52;19.00;99.90
14014;DHT22;49110;52.584;13.408;2023-08-12T00:32:53;19.00;99.90
14014;DHT22;49110;52.584;13.408;2023-08-12T00:33:53;19.00;99.90
14014;DHT22;49110;52.584;13.408;2023-08-12T00:34:53;19.00;99.90
14014;DHT22;49110;52.584;13.408;2023-08-12T00:35:54;19.00;99.90
14014;DHT22;49110;52.584;13.408;2023-08-12T00:36:54;19.00;99.90
14014;DHT22;49110;52.584;13.408;2023-08-12T00:37:55;19.10;99.90
14014;DHT22;49110;52.584;13.408;2023-08-12T00:38:55;19.10;99.90
14014;DHT22;49110;52.584;13.408;2023-08-12T00:39:56;19.00;99.90
14014;DHT22;49110;52.584;13.408;2023-08-12T00:40:56;19.10;99.90
14014;DHT22;49110;52.584;13.408;2023-08-12T00:41:58;18.90;99.90
14014;DHT22;49110;52.584;13.408;2023-08-12T00:42:58;19.00;99.90
14014;DHT22;49110;52.584;13.408;2023-08-12T00:43:59;19.00;99.90
14014;DHT22;49110;52.584;13.408;2023-08-12T00:44:59;19.00;99.90
14014;DHT22;49110;52.584;13.408;2023-08-12T00:46:00;19.00;99.90
14014;DHT22;49110;52.584;13.408;2023-08-12T00:47:01;19.00;99.90
14014;DHT22;49110;52.584;13.408;2023-08-12T00:48:03;19.10;99.90
14014;DHT22;49110;52.584;13.408;2023-08-12T00:49:04;19.20;99.90
14014;DHT22;49110;52.584;13.408;2023-08-12T00:50:07;19.10;99.90
14014;DHT22;49110;52.584;13.408;2023-08-12T00:51:08;19.20;99.90
14014;DHT22;49110;52.584;13.408;2023-08-12T00:52:09;19.20;99.90
14014;DHT22;49110;52.584;13.408;2023-08-12T00:53:10;19.20;99.90
14014;DHT22;49110;52.584;13.408;2023-08-12T00:54:14;19.20;99.90
14014;DHT22;49110;52.584;13.408;2023-08-12T00:55:16;19.20;99.90
14014;DHT22;49110;52.584;13.408;2023-08-12T00:56:17;19.20;99.90
14014;DHT22;49110;52.584;13.408;2023-08-12T00:57:18;19.20;99.90
14014;DHT22;49110;52.584;13.408;2023-08-12T00:58:18;19.30;99.90
14014;DHT22;49110;52.584;13.408;2023-08-12T00:59:20;19.30;99.90
14014;DHT22;49110;52.584;13.408;2023-08-12T01:00:21;19.30;99.90
14014;DHT22;49110;52.584;13.408;2023-08-12T01:01:22;19.30;99.90
14014;DHT22;49110;52.584;13.408;2023-08-12T01:02:22;19.30;99.90
14014;DHT22;49110;52.584;13.408;2023-08-12T01:03:23;19.30;99.90
14014;DHT22;49110;52.584;13.408;2023-08-12T01:04:24;19.40;99.90
14014;DHT22;49110;52.584;13.408;2023-08-12T01:05:24;19.30;99.90
14014;DHT22;49110;52.584;13.408;2023-08-12T01:06:25;19.40;99.90
14014;DHT22;49110;52.584;13.408;2023-08-12T01:07:26;19.40;99.90
14014;DHT22;49110;52.584;13.408;2023-08-12T01:08:30;19.40;99.90
14014;DHT22;49110;52.584;13.408;2023-08-12T01:09:31;19.40;99.90
14014;DHT22;49110;52.584;13.408;2023-08-12T01:10:35;19.40;99.90
14014;DHT22;49110;52.584;13.408;2023-08-12T01:11:45;19.40;99.90
14014;DHT22;49110;52.584;13.408;2023-08-12T01:12:50;19.40;99.90
14014;DHT22;49110;52.584;13.408;2023-08-12T01:15:14;19.40;99.90
14014;DHT22;49110;52.584;13.408;2023-08-12T01:16:17;19.50;99.90
14014;DHT22;49110;52.584;13.408;2023-08-12T01:17:18;19.50;99.90
14014;DHT22;49110;52.584;13.408;2023-08-12T01:18:19;19.50;99.90
14014;DHT22;49110;52.584;13.408;2023-08-12T01:19:33;19.50;99.90
14014;DHT22;49110;52.584;13.408;2023-08-12T01:20:35;19.50;99.90
14014;DHT22;49110;52.584;13.408;2023-08-12T01:21:40;19.40;99.90
14014;DHT22;49110;52.584;13.408;2023-08-12T01:22:44;19.50;99.90
14014;DHT22;49110;52.584;13.408;2023-08-12T01:23:44;19.40;99.90
14014;DHT22;49110;52.584;13.408;2023-08-12T01:24:45;19.50;99.90
14014;DHT22;49110;52.584;13.408;2023-08-12T01:25:45;19.50;99.90
14014;DHT22;49110;52.584;13.408;2023-08-12T01:26:46;19.50;99.90
14014;DHT22;49110;52.584;13.408;2023-08-12T01:27:46;19.50;99.90
14014;DHT22;49110;52.584;13.408;2023-08-12T01:28:47;19.50;99.90
14014;DHT22;49110;52.584;13.408;2023-08-12T01:29:49;19.50;99.90
14014;DHT22;49110;52.584;13.408;2023-08-12T01:30:56;19.50;99.90
14014;DHT22;49110;52.584;13.408;2023-08-12T01:32:07;19.50;99.90
14014;DHT22;49110;52.584;13.408;2023-08-12T01:33:24;19.50;99.90
14014;DHT22;49110;52.584;13.408;2023-08-12T01:34:43;19.50;99.90
14014;DHT22;49110;52.584;13.408;2023-08-12T01:35:52;19.50;99.90
14014;DHT22;49110;52.584;13.408;2023-08-12T01:36:55;19.50;99.90
14014;DHT22;49110;52.584;13.408;2023-08-12T01:37:58;19.50;99.90
14014;DHT22;49110;52.584;13.408;2023-08-12T01:39:00;19.40;99.90
14014;DHT22;49110;52.584;13.408;2023-08-12T01:40:02;19.40;99.90
14014;DHT22;49110;52.584;13.408;2023-08-12T01:41:09;19.40;99.90
14014;DHT22;49110;52.584;13.408;2023-08-12T01:42:10;19.40;99.90
14014;DHT22;49110;52.584;13.408;2023-08-12T01:43:11;19.40;99.90
14014;DHT22;49110;52.584;13.408;2023-08-12T01:44:12;19.30;99.90
14014;DHT22;49110;52.584;13.408;2023-08-12T01:45:13;19.30;99.90
14014;DHT22;49110;52.584;13.408;2023-08-12T01:46:13;19.30;99.90
14014;DHT22;49110;52.584;13.408;2023-08-12T01:47:14;19.20;99.90
14014;DHT22;49110;52.584;13.408;2023-08-12T01:48:14;19.20;99.90
14014;DHT22;49110;52.584;13.408;2023-08-12T01:49:15;19.30;99.90
14014;DHT22;49110;52.584;13.408;2023-08-12T01:50:15;19.20;99.90
14014;DHT22;49110;52.584;13.408;2023-08-12T01:51:15;19.20;99.90
14014;DHT22;49110;52.584;13.408;2023-08-12T01:52:16;19.20;99.90
14014;DHT22;49110;52.584;13.408;2023-08-12T01:53:16;19.20;99.90
14014;DHT22;49110;52.584;13.408;2023-08-12T01:54:17;19.20;99.90
14014;DHT22;49110;52.584;13.408;2023-08-12T01:55:18;19.20;99.90
14014;DHT22;49110;52.584;13.408;2023-08-12T01:56:18;19.20;99.90
14014;DHT22;49110;52.584;13.408;2023-08-12T01:57:18;19.20;99.90
14014;DHT22;49110;52.584;13.408;2023-08-12T01:58:19;19.20;99.90
14014;DHT22;49110;52.584;13.408;2023-08-12T01:59:19;19.20;99.90
14014;DHT22;49110;52.584;13.408;2023-08-12T02:00:20;19.10;99.90
14014;DHT22;49110;52.584;13.408;2023-08-12T02:01:20;19.10;99.90
14014;DHT22;49110;52.584;13.408;2023-08-12T02:02:21;19.10;99.90
14014;DHT22;49110;52.584;13.408;2023-08-12T02:03:21;19.10;99.90
14014;DHT22;49110;52.584;13.408;2023-08-12T02:04:22;19.10;99.90
14014;DHT22;49110;52.584;13.408;2023-08-12T02:05:22;19.10;99.90
14014;DHT22;49110;52.584;13.408;2023-08-12T02:06:23;19.10;99.90
14014;DHT22;49110;52.584;13.408;2023-08-12T02:07:23;19.10;99.90
14014;DHT22;49110;52.584;13.408;2023-08-12T02:08:24;19.20;99.90
14014;DHT22;49110;52.584;13.408;2023-08-12T02:09:24;19.20;99.90
14014;DHT22;49110;52.584;13.408;2023-08-12T02:10:25;19.20;99.90
14014;DHT22;49110;52.584;13.408;2023-08-12T02:11:25;19.20;99.90
14014;DHT22;49110;52.584;13.408;2023-08-12T02:12:25;19.20;99.90
14014;DHT22;49110;52.584;13.408;2023-08-12T02:13:26;19.20;99.90
14014;DHT22;49110;52.584;13.408;2023-08-12T02:14:26;19.20;99.90
14014;DHT22;49110;52.584;13.408;2023-08-12T02:15:27;19.30;99.90
14014;DHT22;49110;52.584;13.408;2023-08-12T02:16:27;19.30;99.90
14014;DHT22;49110;52.584;13.408;2023-08-12T02:17:28;19.30;99.90
14014;DHT22;49110;52.584;13.408;2023-08-12T02:18:28;19.30;99.90
14014;DHT22;49110;52.584;13.408;2023-08-12T02:19:29;19.40;99.90
14014;DHT22;49110;52.584;13.408;2023-08-12T02:20:29;19.40;99.90
14014;DHT22;49110;52.584;13.408;2023-08-12T02:21:30;19.40;99.90
14014;DHT22;49110;52.584;13.408;2023-08-12T02:22:30;19.40;99.90
14014;DHT22;49110;52.584;13.408;2023-08-12T02:23:31;19.40;99.90
14014;DHT22;49110;52.584;13.408;2023-08-12T02:24:31;19.40;99.90
14014;DHT22;49110;52.584;13.408;2023-08-12T02:25:31;19.40;99.90
14014;DHT22;49110;52.584;13.408;2023-08-12T02:26:32;19.40;99.90
14014;DHT22;49110;52.584;13.408;2023-08-12T02:27:32;19.40;99.90
14014;DHT22;49110;52.584;13.408;2023-08-12T02:28:33;19.40;99.90
14014;DHT22;49110;52.584;13.408;2023-08-12T02:29:33;19.40;99.90
14014;DHT22;49110;52.584;13.408;2023-08-12T02:30:34;19.40;99.90
14014;DHT22;49110;52.584;13.408;2023-08-12T02:31:34;19.40;99.90
14014;DHT22;49110;52.584;13.408;2023-08-12T02:32:35;19.50;99.90
14014;DHT22;49110;52.584;13.408;2023-08-12T02:33:35;19.50;99.90
14014;DHT22;49110;52.584;13.408;2023-08-12T02:34:36;19.50;99.90
14014;DHT22;49110;52.584;13.408;2023-08-12T02:35:36;19.50;99.90
14014;DHT22;49110;52.584;13.408;2023-08-12T02:36:37;19.40;99.90
14014;DHT22;49110;52.584;13.408;2023-08-12T02:37:37;19.40;99.90
14014;DHT22;49110;52.584;13.408;2023-08-12T02:38:37;19.50;99.90
14014;DHT22;49110;52.584;13.408;2023-08-12T02:39:38;19.40;99.90
14014;DHT22;49110;52.584;13.408;2023-08-12T02:40:38;19.40;99.90
14014;DHT22;49110;52.584;13.408;2023-08-12T02:41:39;19.30;99.90
14014;DHT22;49110;52.584;13.408;2023-08-12T02:42:39;19.40;99.90
14014;DHT22;49110;52.584;13.408;2023-08-12T02:43:40;19.40;99.90
14014;DHT22;49110;52.584;13.408;2023-08-12T02:44:40;19.40;99.90
14014;DHT22;49110;52.584;13.408;2023-08-12T02:45:41;19.40;99.90
14014;DHT22;49110;52.584;13.408;2023-08-12T02:46:41;19.40;99.90
14014;DHT22;49110;52.584;13.408;2023-08-12T02:47:42;19.40;99.90
14014;DHT22;49110;52.584;13.408;2023-08-12T02:48:43;19.40;99.90
14014;DHT22;49110;52.584;13.408;2023-08-12T02:49:43;19.40;99.90
14014;DHT22;49110;52.584;13.408;2023-08-12T02:50:44;19.40;99.90
14014;DHT22;49110;52.584;13.408;2023-08-12T02:51:44;19.40;99.90
14014;DHT22;49110;52.584;13.408;2023-08-12T02:52:45;19.40;99.90
14014;DHT22;49110;52.584;13.408;2023-08-12T02:53:45;19.40;99.90
14014;DHT22;49110;52.584;13.408;2023-08-12T02:54:45;19.40;99.90
14014;DHT22;49110;52.584;13.408;2023-08-12T02:55:46;19.40;99.90
14014;DHT22;49110;52.584;13.408;2023-08-12T02:56:46;19.40;99.90
14014;DHT22;49110;52.584;13.408;2023-08-12T02:57:47;19.40;99.90
14014;DHT22;49110;52.584;13.408;2023-08-12T02:58:47;19.40;99.90
14014;DHT22;49110;52.584;13.408;2023-08-12T02:59:48;19.40;99.90
14014;DHT22;49110;52.584;13.408;2023-08-12T03:00:48;19.40;99.90
14014;DHT22;49110;52.584;13.408;2023-08-12T03:01:49;19.30;99.90
14014;DHT22;49110;52.584;13.408;2023-08-12T03:02:49;19.30;99.90
14014;DHT22;49110;52.584;13.408;2023-08-12T03:03:50;19.30;99.90
14014;DHT22;49110;52.584;13.408;2023-08-12T03:04:50;19.20;99.90
14014;DHT22;49110;52.584;13.408;2023-08-12T03:05:51;19.20;99.90
14014;DHT22;49110;52.584;13.408;2023-08-12T03:06:51;19.20;99.90
14014;DHT22;49110;52.584;13.408;2023-08-12T03:07:52;19.20;99.90
14014;DHT22;49110;52.584;13.408;2023-08-12T03:08:52;19.20;99.90
14014;DHT22;49110;52.584;13.408;2023-08-12T03:09:53;19.20;99.90
14014;DHT22;49110;52.584;13.408;2023-08-12T03:11:02;19.20;99.90
14014;DHT22;49110;52.584;13.408;2023-08-12T03:12:03;19.20;99.90
14014;DHT22;49110;52.584;13.408;2023-08-12T03:13:04;19.20;99.90
14014;DHT22;49110;52.584;13.408;2023-08-12T03:14:04;19.20;99.90
14014;DHT22;49110;52.584;13.408;2023-08-12T03:15:08;19.20;99.90
14014;DHT22;49110;52.584;13.408;2023-08-12T03:16:12;19.20;99.90
14014;DHT22;49110;52.584;13.408;2023-08-12T03:17:14;19.20;99.90
14014;DHT22;49110;52.584;13.408;2023-08-12T03:18:14;19.20;99.90
14014;DHT22;49110;52.584;13.408;2023-08-12T03:19:15;19.20;99.90
14014;DHT22;49110;52.584;13.408;2023-08-12T03:20:15;19.10;99.90
14014;DHT22;49110;52.584;13.408;2023-08-12T03:21:15;19.10;99.90
14014;DHT22;49110;52.584;13.408;2023-08-12T03:22:16;19.10;99.90
14014;DHT22;49110;52.584;13.408;2023-08-12T03:23:17;19.10;99.90
14014;DHT22;49110;52.584;13.408;2023-08-12T03:24:18;19.10;99.90
14014;DHT22;49110;52.584;13.408;2023-08-12T03:25:18;19.10;99.90
14014;DHT22;49110;52.584;13.408;2023-08-12T03:26:19;19.10;99.90
14014;DHT22;49110;52.584;13.408;2023-08-12T03:27:20;19.10;99.90
14014;DHT22;49110;52.584;13.408;2023-08-12T03:28:20;19.10;99.90
14014;DHT22;49110;52.584;13.408;2023-08-12T03:29:21;19.10;99.90
14014;DHT22;49110;52.584;13.408;2023-08-12T03:30:21;19.10;99.90
14014;DHT22;49110;52.584;13.408;2023-08-12T03:31:22;19.10;99.90
14014;DHT22;49110;52.584;13.408;2023-08-12T03:32:23;19.10;99.90
14014;DHT22;49110;52.584;13.408;2023-08-12T03:33:24;19.10;99.90
14014;DHT22;49110;52.584;13.408;2023-08-12T03:34:24;19.10;99.90
14014;DHT22;49110;52.584;13.408;2023-08-12T03:35:25;19.00;99.90
14014;DHT22;49110;52.584;13.408;2023-08-12T03:36:25;19.00;99.90
14014;DHT22;49110;52.584;13.408;2023-08-12T03:37:26;19.00;99.90
14014;DHT22;49110;52.584;13.408;2023-08-12T03:38:26;19.00;99.90
14014;DHT22;49110;52.584;13.408;2023-08-12T03:39:27;19.00;99.90
14014;DHT22;49110;52.584;13.408;2023-08-12T03:40:27;19.00;99.90
14014;DHT22;49110;52.584;13.408;2023-08-12T03:41:28;19.00;99.90
14014;DHT22;49110;52.584;13.408;2023-08-12T03:42:28;19.00;99.90
14014;DHT22;49110;52.584;13.408;2023-08-12T03:43:28;19.00;99.90
14014;DHT22;49110;52.584;13.408;2023-08-12T03:44:29;19.00;99.90
14014;DHT22;49110;52.584;13.408;2023-08-12T03:45:29;19.00;99.90
14014;DHT22;49110;52.584;13.408;2023-08-12T03:46:30;19.00;99.90
14014;DHT22;49110;52.584;13.408;2023-08-12T03:47:30;19.00;99.90
14014;DHT22;49110;52.584;13.408;2023-08-12T03:48:31;19.00;99.90
14014;DHT22;49110;52.584;13.408;2023-08-12T03:49:32;19.00;99.90
14014;DHT22;49110;52.584;13.408;2023-08-12T03:50:39;19.10;99.90
14014;DHT22;49110;52.584;13.408;2023-08-12T03:51:40;19.10;99.90
14014;DHT22;49110;52.584;13.408;2023-08-12T03:52:40;19.10;99.90
14014;DHT22;49110;52.584;13.408;2023-08-12T03:53:41;19.10;99.90
14014;DHT22;49110;52.584;13.408;2023-08-12T03:54:41;19.10;99.90
14014;DHT22;49110;52.584;13.408;2023-08-12T03:55:41;19.10;99.90
14014;DHT22;49110;52.584;13.408;2023-08-12T03:56:42;19.20;99.90
14014;DHT22;49110;52.584;13.408;2023-08-12T03:57:42;19.10;99.90
14014;DHT22;49110;52.584;13.408;2023-08-12T03:58:43;19.20;99.90
14014;DHT22;49110;52.584;13.408;2023-08-12T03:59:44;19.10;99.90
14014;DHT22;49110;52.584;13.408;2023-08-12T04:00:44;19.10;99.90
14014;DHT22;49110;52.584;13.408;2023-08-12T04:01:44;19.00;99.90
14014;DHT22;49110;52.584;13.408;2023-08-12T04:02:45;19.00;99.90
14014;DHT22;49110;52.584;13.408;2023-08-12T04:03:45;19.00;99.90
14014;DHT22;49110;52.584;13.408;2023-08-12T04:04:46;19.00;99.90
14014;DHT22;49110;52.584;13.408;2023-08-12T04:05:50;19.00;99.90
14014;DHT22;49110;52.584;13.408;2023-08-12T04:06:52;19.00;99.90
14014;DHT22;49110;52.584;13.408;2023-08-12T04:07:53;19.00;99.90
14014;DHT22;49110;52.584;13.408;2023-08-12T04:08:53;19.10;99.90
14014;DHT22;49110;52.584;13.408;2023-08-12T04:09:54;19.10;99.90
14014;DHT22;49110;52.584;13.408;2023-08-12T04:10:54;19.10;99.90
14014;DHT22;49110;52.584;13.408;2023-08-12T04:11:55;19.10;99.90
14014;DHT22;49110;52.584;13.408;2023-08-12T04:12:55;19.10;99.90
14014;DHT22;49110;52.584;13.408;2023-08-12T04:13:56;19.10;99.90
14014;DHT22;49110;52.584;13.408;2023-08-12T04:14:56;19.10;99.90
14014;DHT22;49110;52.584;13.408;2023-08-12T04:15:56;19.10;99.90
14014;DHT22;49110;52.584;13.408;2023-08-12T04:16:57;19.20;99.90
14014;DHT22;49110;52.584;13.408;2023-08-12T04:17:57;19.10;99.90
14014;DHT22;49110;52.584;13.408;2023-08-12T04:18:59;19.20;99.90
14014;DHT22;49110;52.584;13.408;2023-08-12T04:19:59;19.10;99.90
14014;DHT22;49110;52.584;13.408;2023-08-12T04:21:00;19.10;99.90
14014;DHT22;49110;52.584;13.408;2023-08-12T04:22:00;19.10;99.90
14014;DHT22;49110;52.584;13.408;2023-08-12T04:23:01;19.10;99.90
14014;DHT22;49110;52.584;13.408;2023-08-12T04:24:01;19.10;99.90
14014;DHT22;49110;52.584;13.408;2023-08-12T04:25:03;19.10;99.90
14014;DHT22;49110;52.584;13.408;2023-08-12T04:26:03;19.10;99.90
14014;DHT22;49110;52.584;13.408;2023-08-12T04:27:04;19.10;99.90
14014;DHT22;49110;52.584;13.408;2023-08-12T04:28:04;19.10;99.90
14014;DHT22;49110;52.584;13.408;2023-08-12T04:29:05;19.10;99.90
14014;DHT22;49110;52.584;13.408;2023-08-12T04:30:06;19.10;99.90
14014;DHT22;49110;52.584;13.408;2023-08-12T04:31:07;19.10;99.90
14014;DHT22;49110;52.584;13.408;2023-08-12T04:32:08;19.10;99.90
14014;DHT22;49110;52.584;13.408;2023-08-12T04:33:08;19.10;99.90
14014;DHT22;49110;52.584;13.408;2023-08-12T04:34:09;19.10;99.90
14014;DHT22;49110;52.584;13.408;2023-08-12T04:35:09;19.10;99.90
14014;DHT22;49110;52.584;13.408;2023-08-12T04:36:10;19.10;99.90
14014;DHT22;49110;52.584;13.408;2023-08-12T04:37:10;19.20;99.90
14014;DHT22;49110;52.584;13.408;2023-08-12T04:38:11;19.20;99.90
14014;DHT22;49110;52.584;13.408;2023-08-12T04:39:12;19.20;99.90
14014;DHT22;49110;52.584;13.408;2023-08-12T04:40:12;19.20;99.90
14014;DHT22;49110;52.584;13.408;2023-08-12T04:41:13;19.20;99.90
14014;DHT22;49110;52.584;13.408;2023-08-12T04:42:13;19.30;99.90
14014;DHT22;49110;52.584;13.408;2023-08-12T04:43:14;19.30;99.90
14014;DHT22;49110;52.584;13.408;2023-08-12T04:44:14;19.30;99.90
14014;DHT22;49110;52.584;13.408;2023-08-12T04:45:15;19.30;99.90
14014;DHT22;49110;52.584;13.408;2023-08-12T04:46:15;19.40;99.90
14014;DHT22;49110;52.584;13.408;2023-08-12T04:47:16;19.40;99.90
14014;DHT22;49110;52.584;13.408;2023-08-12T04:48:16;19.40;99.90
14014;DHT22;49110;52.584;13.408;2023-08-12T04:49:16;19.40;99.90
14014;DHT22;49110;52.584;13.408;2023-08-12T04:50:17;19.40;99.90
14014;DHT22;49110;52.584;13.408;2023-08-12T04:51:17;19.50;99.90
14014;DHT22;49110;52.584;13.408;2023-08-12T04:52:18;19.50;99.90
14014;DHT22;49110;52.584;13.408;2023-08-12T04:53:18;19.50;99.90
14014;DHT22;49110;52.584;13.408;2023-08-12T04:54:19;19.50;99.90
14014;DHT22;49110;52.584;13.408;2023-08-12T04:55:19;19.60;99.90
14014;DHT22;49110;52.584;13.408;2023-08-12T04:56:20;19.60;99.90
14014;DHT22;49110;52.584;13.408;2023-08-12T04:57:20;19.60;99.90
14014;DHT22;49110;52.584;13.408;2023-08-12T04:58:21;19.60;99.90
14014;DHT22;49110;52.584;13.408;2023-08-12T04:59:21;19.70;99.90
14014;DHT22;49110;52.584;13.408;2023-08-12T05:00:22;19.70;99.90
14014;DHT22;49110;52.584;13.408;2023-08-12T05:01:23;19.70;99.90
14014;DHT22;49110;52.584;13.408;2023-08-12T05:02:24;19.70;99.90
14014;DHT22;49110;52.584;13.408;2023-08-12T05:03:24;19.80;99.90
14014;DHT22;49110;52.584;13.408;2023-08-12T05:04:25;19.80;99.90
14014;DHT22;49110;52.584;13.408;2023-08-12T05:05:26;19.80;99.90
14014;DHT22;49110;52.584;13.408;2023-08-12T05:06:27;19.90;99.90
14014;DHT22;49110;52.584;13.408;2023-08-12T05:07:27;19.90;99.90
14014;DHT22;49110;52.584;13.408;2023-08-12T05:08:28;20.00;99.90
14014;DHT22;49110;52.584;13.408;2023-08-12T05:09:28;20.00;99.90
14014;DHT22;49110;52.584;13.408;2023-08-12T05:10:29;20.10;99.90
14014;DHT22;49110;52.584;13.408;2023-08-12T05:11:29;20.10;99.90
14014;DHT22;49110;52.584;13.408;2023-08-12T05:12:30;20.10;99.90
14014;DHT22;49110;52.584;13.408;2023-08-12T05:13:30;20.10;99.90
14014;DHT22;49110;52.584;13.408;2023-08-12T05:14:31;20.20;99.90
14014;DHT22;49110;52.584;13.408;2023-08-12T05:15:31;20.20;99.90
14014;DHT22;49110;52.584;13.408;2023-08-12T05:16:31;20.20;99.90
14014;DHT22;49110;52.584;13.408;2023-08-12T05:17:32;20.30;99.90
14014;DHT22;49110;52.584;13.408;2023-08-12T05:18:32;20.30;99.90
14014;DHT22;49110;52.584;13.408;2023-08-12T05:19:33;20.30;99.90
14014;DHT22;49110;52.584;13.408;2023-08-12T05:20:33;20.40;99.90
14014;DHT22;49110;52.584;13.408;2023-08-12T05:21:34;20.40;99.90
14014;DHT22;49110;52.584;13.408;2023-08-12T05:22:34;20.40;99.90
14014;DHT22;49110;52.584;13.408;2023-08-12T05:23:35;20.50;99.90
14014;DHT22;49110;52.584;13.408;2023-08-12T05:24:35;20.60;99.90
14014;DHT22;49110;52.584;13.408;2023-08-12T05:25:35;20.60;99.90
14014;DHT22;49110;52.584;13.408;2023-08-12T05:26:36;20.60;99.90
14014;DHT22;49110;52.584;13.408;2023-08-12T05:27:36;20.60;99.90
14014;DHT22;49110;52.584;13.408;2023-08-12T05:28:37;20.70;99.90
14014;DHT22;49110;52.584;13.408;2023-08-12T05:29:37;20.80;99.90
14014;DHT22;49110;52.584;13.408;2023-08-12T05:30:38;20.70;99.90
14014;DHT22;49110;52.584;13.408;2023-08-12T05:31:38;20.80;99.90
14014;DHT22;49110;52.584;13.408;2023-08-12T05:32:39;20.80;99.90
14014;DHT22;49110;52.584;13.408;2023-08-12T05:33:39;20.80;99.90
14014;DHT22;49110;52.584;13.408;2023-08-12T05:34:40;20.80;99.90
14014;DHT22;49110;52.584;13.408;2023-08-12T05:35:40;20.90;99.90
14014;DHT22;49110;52.584;13.408;2023-08-12T05:36:41;20.90;99.90
14014;DHT22;49110;52.584;13.408;2023-08-12T05:37:41;20.90;99.90
14014;DHT22;49110;52.584;13.408;2023-08-12T05:38:42;20.80;99.90
14014;DHT22;49110;52.584;13.408;2023-08-12T05:39:42;20.90;99.90
14014;DHT22;49110;52.584;13.408;2023-08-12T05:40:43;20.90;99.90
14014;DHT22;49110;52.584;13.408;2023-08-12T05:41:43;20.80;99.90
14014;DHT22;49110;52.584;13.408;2023-08-12T05:42:43;20.80;99.90
14014;DHT22;49110;52.584;13.408;2023-08-12T05:43:44;20.80;99.90
14014;DHT22;49110;52.584;13.408;2023-08-12T05:44:44;20.80;99.90
14014;DHT22;49110;52.584;13.408;2023-08-12T05:45:45;20.70;99.90
14014;DHT22;49110;52.584;13.408;2023-08-12T05:46:45;20.70;99.90
14014;DHT22;49110;52.584;13.408;2023-08-12T05:47:46;20.70;99.90
14014;DHT22;49110;52.584;13.408;2023-08-12T05:48:46;20.70;99.90
14014;DHT22;49110;52.584;13.408;2023-08-12T05:49:47;20.70;99.90
14014;DHT22;49110;52.584;13.408;2023-08-12T05:50:47;20.70;99.90
14014;DHT22;49110;52.584;13.408;2023-08-12T05:51:48;20.70;99.90
14014;DHT22;49110;52.584;13.408;2023-08-12T05:52:48;20.70;99.90
14014;DHT22;49110;52.584;13.408;2023-08-12T05:53:49;20.70;99.90
14014;DHT22;49110;52.584;13.408;2023-08-12T05:54:49;20.70;99.90
14014;DHT22;49110;52.584;13.408;2023-08-12T05:55:50;20.70;99.90
14014;DHT22;49110;52.584;13.408;2023-08-12T05:56:50;20.70;99.90
14014;DHT22;49110;52.584;13.408;2023-08-12T05:57:51;20.70;99.90
14014;DHT22;49110;52.584;13.408;2023-08-12T05:58:51;20.80;99.90
14014;DHT22;49110;52.584;13.408;2023-08-12T05:59:52;20.80;99.90
14014;DHT22;49110;52.584;13.408;2023-08-12T06:00:52;20.80;99.90
14014;DHT22;49110;52.584;13.408;2023-08-12T06:01:53;20.80;99.90
14014;DHT22;49110;52.584;13.408;2023-08-12T06:02:54;20.90;99.90
14014;DHT22;49110;52.584;13.408;2023-08-12T06:03:54;20.80;99.90
14014;DHT22;49110;52.584;13.408;2023-08-12T06:04:55;20.90;99.90
14014;DHT22;49110;52.584;13.408;2023-08-12T06:05:55;20.90;99.90
14014;DHT22;49110;52.584;13.408;2023-08-12T06:06:56;21.00;99.90
14014;DHT22;49110;52.584;13.408;2023-08-12T06:07:56;21.00;99.90
14014;DHT22;49110;52.584;13.408;2023-08-12T06:08:57;21.00;99.90
14014;DHT22;49110;52.584;13.408;2023-08-12T06:09:57;21.10;99.90
14014;DHT22;49110;52.584;13.408;2023-08-12T06:10:57;21.10;99.90
14014;DHT22;49110;52.584;13.408;2023-08-12T06:11:58;21.10;99.90
14014;DHT22;49110;52.584;13.408;2023-08-12T06:12:58;21.10;99.90
14014;DHT22;49110;52.584;13.408;2023-08-12T06:13:59;21.10;99.90
14014;DHT22;49110;52.584;13.408;2023-08-12T06:14:59;21.20;99.90
14014;DHT22;49110;52.584;13.408;2023-08-12T06:16:01;21.30;99.90
14014;DHT22;49110;52.584;13.408;2023-08-12T06:17:01;21.30;99.90
14014;DHT22;49110;52.584;13.408;2023-08-12T06:18:02;21.40;99.90
14014;DHT22;49110;52.584;13.408;2023-08-12T06:19:03;21.30;99.90
14014;DHT22;49110;52.584;13.408;2023-08-12T06:20:04;21.40;99.90